TimeMST,TemperatureF,Dew PointF,Humidity,Sea Level PressureIn,VisibilityMPH,Wind Direction,Wind SpeedMPH,Gust SpeedMPH,PrecipitationIn,Events,Conditions,WindDirDegrees,DateUTC
12:15 AM,22.5,17.2,80,30.43,10.0,NNW,9.2,-,N/A,,Clear,330,2013-11-27 07:15:00
12:35 AM,21.2,16.2,81,30.43,10.0,Calm,Calm,-,N/A,,Clear,0,2013-11-27 07:35:00
12:55 AM,17.8,14.0,85,30.42,10.0,North,3.5,-,N/A,,Clear,350,2013-11-27 07:55:00
1:15 AM,18.3,15.1,87,30.42,10.0,NNW,4.6,-,N/A,,Clear,330,2013-11-27 08:15:00
1:35 AM,20.1,15.4,82,30.41,10.0,NNW,6.9,-,N/A,,Clear,340,2013-11-27 08:35:00
1:55 AM,18.1,13.8,83,30.42,10.0,WNW,4.6,-,N/A,,Clear,290,2013-11-27 08:55:00
2:15 AM,16.7,12.9,85,30.42,10.0,WNW,3.5,-,N/A,,Clear,300,2013-11-27 09:15:00
2:35 AM,14.2,11.8,90,30.41,10.0,Calm,Calm,-,N/A,,Clear,0,2013-11-27 09:35:00
2:55 AM,14.9,11.8,88,30.41,10.0,Calm,Calm,-,N/A,,Clear,0,2013-11-27 09:55:00
3:15 AM,16.5,13.8,89,30.41,10.0,NW,3.5,-,N/A,,Clear,320,2013-11-27 10:15:00
3:35 AM,14.9,12.6,90,30.41,10.0,West,3.5,-,N/A,,Clear,270,2013-11-27 10:35:00
3:55 AM,14.5,12.0,90,30.40,10.0,Calm,Calm,-,N/A,,Clear,0,2013-11-27 10:55:00
4:15 AM,15.1,12.4,89,30.40,10.0,NNW,3.5,-,N/A,,Clear,340,2013-11-27 11:15:00
4:35 AM,15.4,12.9,90,30.41,10.0,Calm,Calm,-,N/A,,Clear,0,2013-11-27 11:35:00
4:55 AM,17.1,13.3,85,30.41,10.0,NNW,8.1,-,N/A,,Clear,330,2013-11-27 11:55:00
5:15 AM,18.7,13.3,79,30.41,10.0,NW,11.5,-,N/A,,Clear,320,2013-11-27 12:15:00
5:35 AM,18.3,13.1,80,30.41,10.0,NW,6.9,-,N/A,,Clear,310,2013-11-27 12:35:00
5:55 AM,17.6,13.6,84,30.41,10.0,NW,6.9,-,N/A,,Clear,310,2013-11-27 12:55:00
6:15 AM,19.2,13.3,78,30.40,10.0,NNW,10.4,-,N/A,,Clear,340,2013-11-27 13:15:00
6:35 AM,18.5,13.1,79,30.40,10.0,NNW,9.2,-,N/A,,Clear,330,2013-11-27 13:35:00
6:55 AM,18.1,12.7,79,30.40,10.0,NNW,9.2,-,N/A,,Clear,330,2013-11-27 13:55:00
7:15 AM,20.1,13.5,75,30.40,10.0,NNW,11.5,-,N/A,,Clear,330,2013-11-27 14:15:00
7:35 AM,20.1,13.3,75,30.40,10.0,NNW,9.2,-,N/A,,Clear,330,2013-11-27 14:35:00
7:55 AM,20.8,13.5,73,30.40,10.0,NNW,10.4,-,N/A,,Clear,330,2013-11-27 14:55:00
8:15 AM,21.0,13.5,73,30.40,10.0,NNW,10.4,-,N/A,,Clear,330,2013-11-27 15:15:00
8:35 AM,22.1,13.6,70,30.40,10.0,NW,10.4,-,N/A,,Clear,320,2013-11-27 15:35:00
8:55 AM,23.5,14.5,69,30.40,10.0,NNW,10.4,-,N/A,,Clear,330,2013-11-27 15:55:00
9:15 AM,25.3,15.3,66,30.39,10.0,NNW,9.2,-,N/A,,Clear,330,2013-11-27 16:15:00
9:35 AM,26.6,16.3,65,30.39,10.0,WNW,4.6,-,N/A,,Clear,300,2013-11-27 16:35:00
9:55 AM,28.4,17.4,63,30.38,10.0,WNW,3.5,-,N/A,,Clear,290,2013-11-27 16:55:00
10:15 AM,29.8,18.1,62,30.37,10.0,Calm,Calm,-,N/A,,Clear,0,2013-11-27 17:15:00
10:35 AM,31.3,19.4,61,30.37,10.0,NNW,3.5,-,N/A,,Clear,330,2013-11-27 17:35:00
10:55 AM,33.1,20.7,60,30.35,10.0,NNW,3.5,-,N/A,,Clear,330,2013-11-27 17:55:00
11:15 AM,34.5,20.1,56,30.34,10.0,NNW,3.5,-,N/A,,Clear,330,2013-11-27 18:15:00
11:35 AM,35.6,21.0,55,30.32,10.0,NNE,3.5,-,N/A,,Clear,20,2013-11-27 18:35:00
11:55 AM,36.5,22.3,56,30.31,10.0,North,3.5,-,N/A,,Clear,360,2013-11-27 18:55:00
12:15 PM,37.4,23.0,56,30.29,10.0,North,4.6,-,N/A,,Clear,360,2013-11-27 19:15:00
12:35 PM,41.0,21.0,45,30.29,10.0,WSW,3.5,-,N/A,,Clear,240,2013-11-27 19:35:00
12:55 PM,41.2,21.9,46,30.28,10.0,WSW,5.8,-,N/A,,Clear,250,2013-11-27 19:55:00
1:15 PM,41.7,23.9,49,30.27,10.0,SW,4.6,-,N/A,,Clear,220,2013-11-27 20:15:00
1:35 PM,41.2,22.6,48,30.25,10.0,South,3.5,-,N/A,,Clear,190,2013-11-27 20:35:00
1:55 PM,40.1,22.8,50,30.25,10.0,Calm,Calm,-,N/A,,Clear,0,2013-11-27 20:55:00
2:15 PM,41.2,22.8,48,30.25,10.0,Calm,Calm,-,N/A,,Clear,0,2013-11-27 21:15:00
2:35 PM,41.0,25.2,53,30.24,10.0,Calm,Calm,-,N/A,,Clear,0,2013-11-27 21:35:00
2:55 PM,41.2,23.5,50,30.24,10.0,WSW,4.6,-,N/A,,Clear,240,2013-11-27 21:55:00
3:15 PM,41.4,23.5,49,30.24,10.0,SW,3.5,-,N/A,,Clear,230,2013-11-27 22:15:00
3:55 PM,36.9,23.4,58,30.24,10.0,SW,4.6,-,N/A,,Clear,230,2013-11-27 22:55:00
4:15 PM,34.7,22.1,60,30.24,10.0,SW,9.2,-,N/A,,Clear,230,2013-11-27 23:15:00
4:35 PM,33.6,20.8,59,30.24,10.0,WSW,6.9,-,N/A,,Clear,250,2013-11-27 23:35:00
4:55 PM,33.3,20.5,59,30.25,10.0,WSW,11.5,17.3,N/A,,Clear,250,2013-11-27 23:55:00
5:15 PM,32.7,20.1,60,30.25,10.0,WSW,11.5,-,N/A,,Clear,250,2013-11-28 00:15:00
5:35 PM,32.9,19.4,58,30.26,10.0,West,12.7,17.3,N/A,,Clear,260,2013-11-28 00:35:00
5:55 PM,33.3,19.4,57,30.27,10.0,West,10.4,-,N/A,,Clear,260,2013-11-28 00:55:00
6:15 PM,33.6,20.8,59,30.27,10.0,WSW,13.8,-,N/A,,Clear,240,2013-11-28 01:15:00
6:35 PM,31.8,19.4,60,30.27,10.0,WSW,9.2,-,N/A,,Clear,240,2013-11-28 01:35:00
6:55 PM,29.3,20.8,71,30.27,10.0,West,8.1,-,N/A,,Clear,270,2013-11-28 01:55:00
7:15 PM,29.8,21.6,71,30.28,10.0,West,8.1,-,N/A,,Clear,270,2013-11-28 02:15:00
7:35 PM,28.0,20.8,74,30.28,10.0,West,4.6,-,N/A,,Clear,280,2013-11-28 02:35:00
7:55 PM,28.8,21.2,73,30.29,10.0,West,6.9,-,N/A,,Clear,260,2013-11-28 02:55:00
8:15 PM,27.0,20.1,75,30.29,10.0,West,5.8,-,N/A,,Clear,270,2013-11-28 03:15:00
8:35 PM,25.7,18.7,75,30.29,10.0,WNW,4.6,-,N/A,,Clear,290,2013-11-28 03:35:00
8:55 PM,26.6,20.1,77,30.29,10.0,Calm,Calm,-,N/A,,Clear,0,2013-11-28 03:55:00
9:15 PM,26.2,19.9,77,30.29,10.0,WNW,4.6,-,N/A,,Clear,290,2013-11-28 04:15:00
9:35 PM,25.2,19.2,78,30.30,10.0,Calm,Calm,-,N/A,,Clear,0,2013-11-28 04:35:00
9:55 PM,24.1,18.0,77,30.30,10.0,West,5.8,-,N/A,,Clear,260,2013-11-28 04:55:00
10:15 PM,22.1,17.4,82,30.30,10.0,West,5.8,-,N/A,,Clear,280,2013-11-28 05:15:00
10:35 PM,28.9,19.2,67,30.30,10.0,WSW,9.2,-,N/A,,Clear,250,2013-11-28 05:35:00
11:15 PM,25.0,18.3,76,30.30,10.0,Calm,Calm,-,N/A,,Clear,0,2013-11-28 06:15:00
11:35 PM,25.0,19.4,79,30.30,10.0,Calm,Calm,-,N/A,,Clear,0,2013-11-28 06:35:00
11:55 PM,23.5,18.5,81,30.30,10.0,Calm,Calm,-,N/A,,Clear,0,2013-11-28 06:55:00